METAR Data
IDs: Format: Raw Decoded Include TAF

Data at: 1253 UTC 23 Sep 2018

KSTS 231244Z AUTO 00000KT 1 1/4SM BR OVC003 08/07 A2987 RMK AO2 T00780072
KSTS 231232Z AUTO 00000KT 2 1/2SM BR BKN003 08/07 A2987 RMK AO2 T00830072
KSTS 231225Z AUTO 00000KT 10SM BKN004 07/07 A2987 RMK AO2 T00720067
KSTS 231201Z AUTO 00000KT 10SM FEW004 07/07 A2987 RMK AO2 T00720067
KSTS 231153Z AUTO 00000KT 10SM CLR 08/07 A2987 RMK AO2 SLP108 T00830072 10111 20078 58004
KSTS 231139Z AUTO 00000KT 10SM FEW003 08/07 A2987 RMK AO2 T00780072
KSTS 231053Z AUTO 00000KT 10SM CLR 08/07 A2987 RMK AO2 SLP109 T00780072
KSTS 230953Z AUTO 00000KT 10SM CLR 09/08 A2988 RMK AO2 SLP112 T00940083
KSTS 230853Z AUTO 00000KT 10SM CLR 09/08 A2988 RMK AO2 SLP112 T00940083 58001
KSTS 230753Z AUTO 00000KT 10SM CLR 10/08 A2988 RMK AO2 SLP113 T01000083 402780094
KSTS 230653Z AUTO 00000KT 10SM CLR 11/09 A2988 RMK AO2 SLP112 T01060094
KSTS 230553Z AUTO 00000KT 10SM CLR 11/10 A2988 RMK AO2 SLP113 T01110100 10256 20111 50004
KSTS 230453Z AUTO 00000KT 10SM CLR 13/10 A2989 RMK AO2 SLP114 T01280100
KSTS 230353Z AUTO 00000KT 10SM CLR 14/11 A2988 RMK AO2 SLP113 T01440106
KSTS 230253Z AUTO 13004KT 10SM CLR 15/11 A2987 RMK AO2 SLP109 T01500106 55002
KSTS 230153Z 16007KT 10SM SCT250 18/11 A2987 RMK AO2 SLP108 T01830106
KSTS 230053Z 17009KT 10SM SCT250 23/10 A2987 RMK AO2 SLP110 T02280100
KSTS 222353Z 14010KT 10SM FEW250 26/11 A2988 RMK AO2 SLP111 T02560106 10278 20150 56017
KSTS 222253Z 19009KT 10SM CLR 27/11 A2989 RMK AO2 SLP114 T02670111
KSTS 222153Z 18008KT 10SM CLR 27/08 A2990 RMK AO2 SLP119 T02670083
KSTS 222053Z 17007KT 10SM FEW250 26/11 A2993 RMK AO2 SLP127 T02610111 58019
KSTS 221953Z 17004KT 10SM FEW250 23/11 A2995 RMK AO2 SLP137 T02280106
KSTS 221853Z 22004KT 10SM FEW250 19/10 A2998 RMK AO2 SLP145 T01890100
KSTS 221753Z 19003KT 10SM FEW250 16/11 A2998 RMK AO2 SLP147 T01560106 10156 20106 58001
KSTS 221712Z 00000KT 7SM SCT004 12/11 A2999 RMK AO2 T01220106
KSTS 221653Z 30003KT 6SM BR OVC004 12/11 A3000 RMK AO2 SLP151 T01220106
KSTS 221635Z 00000KT 6SM BR OVC004 12/11 A3000 RMK AO2 T01170106
KSTS 221553Z VRB03KT 3SM BR OVC003 11/11 A2999 RMK AO2 SLP151 T01110106
KSTS 221453Z COR 00000KT 1 1/2SM BR OVC002 11/11 A2999 RMK AO2 SLP148 T01110111 53005
KSTS 221353Z 35003KT 1 1/2SM BR OVC003 11/11 A2998 RMK AO2 SLP145 T01110111
KSTS 221253Z AUTO 00000KT 5SM BR OVC003 11/11 A2997 RMK AO2 SLP142 T01110111
KSTS 221153Z AUTO 00000KT 5SM BR OVC003 11/11 A2997 RMK AO2 SLP143 T01110111 10117 20100 58006
KSTS 221053Z AUTO 28004KT 8SM OVC003 11/11 A2998 RMK AO2 SLP144 T01110106
KSTS 220953Z AUTO 22003KT 7SM OVC003 12/11 A2999 RMK AO2 SLP147 T01170111
KSTS 220853Z AUTO 14003KT 6SM BR OVC003 12/11 A2999 RMK AO2 SLP148 T01170111 53004
KSTS 220753Z AUTO 15004KT 5SM BR BKN002 BKN008 11/11 A2998 RMK AO2 SLP144 T01110106 403170072
KSTS 220745Z AUTO 14004KT 5SM BR BKN002 BKN008 11/11 A2998 RMK AO2 T01110106
KSTS 220653Z AUTO 00000KT 7SM FEW005 11/11 A2998 RMK AO2 SLP145 T01060106
KSTS 220632Z AUTO 00000KT 6SM BR SCT005 11/11 A2998 RMK AO2 T01110106
KSTS 220553Z AUTO 00000KT 7SM CLR 12/11 A2998 RMK AO2 SLP145 T01170106 10244 20111 50008
KSTS 220453Z AUTO 15005KT 7SM CLR 12/11 A2998 RMK AO2 SLP147 T01220111
KSTS 220353Z AUTO 15006KT 8SM CLR 13/11 A2998 RMK AO2 SLP144 T01280111
KSTS 220253Z 16007KT 9SM FEW015 13/12 A2995 RMK AO2 SLP137 T01330117 53013
KSTS 220153Z 16008KT 8SM FEW015 16/11 A2994 RMK AO2 SLP132 T01610111